sensor_id;sensor_type;location;lat;lon;timestamp;pressure;altitude;pressure_sealevel;temperature;humidity
53514;BME280;39768;54.148;12.174;2023-02-28T00:01:12;103103.91;;;4.35;96.82
53514;BME280;39768;54.148;12.174;2023-02-28T00:05:17;103110.06;;;3.84;100.00
53514;BME280;39768;54.148;12.174;2023-02-28T00:09:19;103109.53;;;4.25;100.00
53514;BME280;39768;54.148;12.174;2023-02-28T00:13:20;103104.56;;;4.49;98.28
53514;BME280;39768;54.148;12.174;2023-02-28T00:17:22;103109.97;;;4.52;96.27
53514;BME280;39768;54.148;12.174;2023-02-28T00:21:23;103108.72;;;4.44;96.83
53514;BME280;39768;54.148;12.174;2023-02-28T00:25:25;103106.22;;;4.47;96.14
53514;BME280;39768;54.148;12.174;2023-02-28T00:29:27;103097.50;;;4.48;96.34
53514;BME280;39768;54.148;12.174;2023-02-28T00:33:29;103098.25;;;4.45;94.93
53514;BME280;39768;54.148;12.174;2023-02-28T00:37:30;103099.78;;;4.40;94.67
53514;BME280;39768;54.148;12.174;2023-02-28T00:41:32;103099.16;;;3.76;96.37
53514;BME280;39768;54.148;12.174;2023-02-28T00:45:33;103105.78;;;3.19;100.00
53514;BME280;39768;54.148;12.174;2023-02-28T00:49:35;103111.84;;;2.71;100.00
53514;BME280;39768;54.148;12.174;2023-02-28T00:53:36;103104.53;;;3.29;100.00
53514;BME280;39768;54.148;12.174;2023-02-28T00:57:38;103110.28;;;3.38;100.00
53514;BME280;39768;54.148;12.174;2023-02-28T01:01:41;103117.44;;;3.25;100.00
53514;BME280;39768;54.148;12.174;2023-02-28T01:05:43;103107.75;;;3.40;100.00
53514;BME280;39768;54.148;12.174;2023-02-28T01:09:45;103107.31;;;3.32;100.00
53514;BME280;39768;54.148;12.174;2023-02-28T01:13:47;103119.72;;;3.18;100.00
53514;BME280;39768;54.148;12.174;2023-02-28T01:17:49;103108.97;;;3.30;100.00
53514;BME280;39768;54.148;12.174;2023-02-28T01:21:50;103113.09;;;3.25;100.00
53514;BME280;39768;54.148;12.174;2023-02-28T01:25:52;103106.84;;;3.39;100.00
53514;BME280;39768;54.148;12.174;2023-02-28T01:29:54;103103.97;;;3.35;98.17
53514;BME280;39768;54.148;12.174;2023-02-28T01:33:55;103127.59;;;3.35;99.34
53514;BME280;39768;54.148;12.174;2023-02-28T01:37:56;103117.56;;;3.28;98.08
53514;BME280;39768;54.148;12.174;2023-02-28T01:42:10;103120.53;;;3.17;98.73
53514;BME280;39768;54.148;12.174;2023-02-28T01:46:13;103112.34;;;3.11;97.70
53514;BME280;39768;54.148;12.174;2023-02-28T01:50:19;103120.25;;;2.20;100.00
53514;BME280;39768;54.148;12.174;2023-02-28T01:54:31;103113.13;;;2.63;100.00
53514;BME280;39768;54.148;12.174;2023-02-28T01:58:34;103105.03;;;2.75;100.00
53514;BME280;39768;54.148;12.174;2023-02-28T02:02:37;103109.97;;;2.85;98.39
53514;BME280;39768;54.148;12.174;2023-02-28T02:06:43;103112.56;;;2.69;100.00
53514;BME280;39768;54.148;12.174;2023-02-28T02:10:48;103104.19;;;2.91;99.96
53514;BME280;39768;54.148;12.174;2023-02-28T02:15:05;103103.59;;;2.80;98.36
53514;BME280;39768;54.148;12.174;2023-02-28T02:28:33;103101.25;;;2.70;99.43
53514;BME280;39768;54.148;12.174;2023-02-28T02:37:43;103105.69;;;2.25;100.00
53514;BME280;39768;54.148;12.174;2023-02-28T02:41:56;103104.25;;;2.30;100.00
53514;BME280;39768;54.148;12.174;2023-02-28T02:46:04;103111.94;;;1.68;100.00
53514;BME280;39768;54.148;12.174;2023-02-28T02:50:12;103111.75;;;1.95;100.00
53514;BME280;39768;54.148;12.174;2023-02-28T02:54:43;103113.22;;;1.75;100.00
53514;BME280;39768;54.148;12.174;2023-02-28T02:58:47;103106.41;;;1.78;100.00
53514;BME280;39768;54.148;12.174;2023-02-28T03:02:52;103113.94;;;1.87;100.00
53514;BME280;39768;54.148;12.174;2023-02-28T03:06:55;103122.84;;;1.19;100.00
53514;BME280;39768;54.148;12.174;2023-02-28T03:10:59;103116.91;;;1.78;100.00
53514;BME280;39768;54.148;12.174;2023-02-28T03:15:11;103119.06;;;1.71;100.00
53514;BME280;39768;54.148;12.174;2023-02-28T03:19:33;103120.03;;;1.58;100.00
53514;BME280;39768;54.148;12.174;2023-02-28T03:23:44;103112.03;;;1.70;100.00
53514;BME280;39768;54.148;12.174;2023-02-28T03:32:08;103117.06;;;1.24;100.00
53514;BME280;39768;54.148;12.174;2023-02-28T03:36:19;103114.84;;;1.30;100.00
53514;BME280;39768;54.148;12.174;2023-02-28T03:40:23;103112.03;;;1.27;100.00
53514;BME280;39768;54.148;12.174;2023-02-28T03:44:46;103114.34;;;1.23;100.00
53514;BME280;39768;54.148;12.174;2023-02-28T03:49:07;103104.94;;;1.39;100.00
53514;BME280;39768;54.148;12.174;2023-02-28T03:53:19;103102.66;;;1.31;100.00
53514;BME280;39768;54.148;12.174;2023-02-28T03:57:37;103107.16;;;1.61;100.00
53514;BME280;39768;54.148;12.174;2023-02-28T04:01:44;103108.25;;;1.37;100.00
53514;BME280;39768;54.148;12.174;2023-02-28T04:05:52;103108.94;;;1.48;100.00
53514;BME280;39768;54.148;12.174;2023-02-28T04:09:54;103113.22;;;1.32;100.00
53514;BME280;39768;54.148;12.174;2023-02-28T04:13:55;103117.59;;;1.19;100.00
53514;BME280;39768;54.148;12.174;2023-02-28T04:17:57;103110.94;;;1.24;100.00
53514;BME280;39768;54.148;12.174;2023-02-28T04:21:58;103118.38;;;1.31;100.00
53514;BME280;39768;54.148;12.174;2023-02-28T04:26:00;103124.34;;;1.15;100.00
53514;BME280;39768;54.148;12.174;2023-02-28T04:30:02;103121.88;;;1.31;100.00
53514;BME280;39768;54.148;12.174;2023-02-28T04:34:03;103122.00;;;1.20;100.00
53514;BME280;39768;54.148;12.174;2023-02-28T04:38:05;103123.50;;;1.29;100.00
53514;BME280;39768;54.148;12.174;2023-02-28T04:42:07;103125.38;;;1.04;100.00
53514;BME280;39768;54.148;12.174;2023-02-28T04:46:09;103121.41;;;1.24;100.00
53514;BME280;39768;54.148;12.174;2023-02-28T04:50:11;103122.47;;;0.99;100.00
53514;BME280;39768;54.148;12.174;2023-02-28T04:54:12;103124.91;;;1.24;100.00
53514;BME280;39768;54.148;12.174;2023-02-28T04:58:14;103126.06;;;1.15;100.00
53514;BME280;39768;54.148;12.174;2023-02-28T05:02:16;103132.97;;;0.86;100.00
53514;BME280;39768;54.148;12.174;2023-02-28T05:06:18;103126.00;;;1.00;100.00
53514;BME280;39768;54.148;12.174;2023-02-28T05:10:20;103139.41;;;0.78;100.00
53514;BME280;39768;54.148;12.174;2023-02-28T05:14:21;103133.81;;;0.72;100.00
53514;BME280;39768;54.148;12.174;2023-02-28T05:18:23;103128.66;;;0.87;100.00
53514;BME280;39768;54.148;12.174;2023-02-28T05:22:24;103139.59;;;0.94;100.00
53514;BME280;39768;54.148;12.174;2023-02-28T05:26:26;103138.59;;;0.79;100.00
53514;BME280;39768;54.148;12.174;2023-02-28T05:30:29;103143.78;;;1.05;100.00
53514;BME280;39768;54.148;12.174;2023-02-28T05:34:31;103151.50;;;0.37;100.00
53514;BME280;39768;54.148;12.174;2023-02-28T05:38:32;103144.84;;;0.81;100.00
53514;BME280;39768;54.148;12.174;2023-02-28T05:42:34;103136.59;;;0.75;100.00
53514;BME280;39768;54.148;12.174;2023-02-28T05:46:35;103140.84;;;0.73;100.00
53514;BME280;39768;54.148;12.174;2023-02-28T05:50:37;103139.34;;;0.50;100.00
53514;BME280;39768;54.148;12.174;2023-02-28T05:54:38;103149.56;;;0.87;100.00
53514;BME280;39768;54.148;12.174;2023-02-28T05:58:40;103148.13;;;0.92;100.00
53514;BME280;39768;54.148;12.174;2023-02-28T06:02:41;103145.09;;;0.58;100.00
53514;BME280;39768;54.148;12.174;2023-02-28T06:06:43;103144.19;;;0.44;100.00
53514;BME280;39768;54.148;12.174;2023-02-28T06:10:46;103135.59;;;0.86;100.00
53514;BME280;39768;54.148;12.174;2023-02-28T06:14:47;103140.03;;;0.74;100.00
53514;BME280;39768;54.148;12.174;2023-02-28T06:18:49;103141.03;;;0.50;100.00
53514;BME280;39768;54.148;12.174;2023-02-28T06:22:50;103140.09;;;0.76;100.00
53514;BME280;39768;54.148;12.174;2023-02-28T06:26:52;103151.75;;;0.94;100.00
53514;BME280;39768;54.148;12.174;2023-02-28T06:30:53;103153.72;;;0.57;100.00
53514;BME280;39768;54.148;12.174;2023-02-28T06:34:55;103153.41;;;0.65;100.00
53514;BME280;39768;54.148;12.174;2023-02-28T06:38:58;103156.97;;;0.94;100.00
53514;BME280;39768;54.148;12.174;2023-02-28T06:43:00;103164.06;;;0.55;100.00
53514;BME280;39768;54.148;12.174;2023-02-28T06:47:03;103163.88;;;0.65;100.00
53514;BME280;39768;54.148;12.174;2023-02-28T06:51:08;103169.97;;;0.79;100.00
53514;BME280;39768;54.148;12.174;2023-02-28T06:55:09;103166.09;;;0.59;100.00
53514;BME280;39768;54.148;12.174;2023-02-28T06:59:11;103171.34;;;1.14;100.00
53514;BME280;39768;54.148;12.174;2023-02-28T07:03:13;103170.69;;;1.31;100.00
53514;BME280;39768;54.148;12.174;2023-02-28T07:07:16;103165.81;;;1.37;100.00
53514;BME280;39768;54.148;12.174;2023-02-28T07:11:19;103178.00;;;1.64;100.00
53514;BME280;39768;54.148;12.174;2023-02-28T07:15:21;103188.97;;;1.72;100.00
53514;BME280;39768;54.148;12.174;2023-02-28T07:19:22;103197.25;;;1.80;100.00
53514;BME280;39768;54.148;12.174;2023-02-28T07:23:23;103180.75;;;1.95;100.00
53514;BME280;39768;54.148;12.174;2023-02-28T07:27:25;103183.31;;;2.08;100.00
53514;BME280;39768;54.148;12.174;2023-02-28T07:31:27;103191.44;;;2.13;100.00
53514;BME280;39768;54.148;12.174;2023-02-28T07:35:30;103196.69;;;2.57;100.00
53514;BME280;39768;54.148;12.174;2023-02-28T07:39:31;103201.94;;;2.57;100.00
53514;BME280;39768;54.148;12.174;2023-02-28T07:43:32;103196.34;;;2.36;100.00
53514;BME280;39768;54.148;12.174;2023-02-28T07:47:34;103197.81;;;3.23;100.00
53514;BME280;39768;54.148;12.174;2023-02-28T07:51:35;103197.84;;;3.55;100.00
53514;BME280;39768;54.148;12.174;2023-02-28T07:55:37;103206.38;;;3.51;100.00
53514;BME280;39768;54.148;12.174;2023-02-28T07:59:38;103201.44;;;3.89;100.00
53514;BME280;39768;54.148;12.174;2023-02-28T08:03:41;103187.72;;;3.95;100.00
53514;BME280;39768;54.148;12.174;2023-02-28T08:07:42;103181.34;;;3.74;100.00
53514;BME280;39768;54.148;12.174;2023-02-28T08:11:44;103174.09;;;4.54;100.00
53514;BME280;39768;54.148;12.174;2023-02-28T08:15:45;103176.34;;;4.64;98.48
53514;BME280;39768;54.148;12.174;2023-02-28T08:19:48;103190.84;;;5.09;97.21
53514;BME280;39768;54.148;12.174;2023-02-28T08:23:51;103186.88;;;5.37;94.21
53514;BME280;39768;54.148;12.174;2023-02-28T08:27:52;103190.78;;;4.90;93.59
53514;BME280;39768;54.148;12.174;2023-02-28T08:31:54;103186.75;;;5.53;88.87
53514;BME280;39768;54.148;12.174;2023-02-28T08:35:56;103182.28;;;5.89;88.23
53514;BME280;39768;54.148;12.174;2023-02-28T08:39:57;103188.69;;;6.15;87.54
53514;BME280;39768;54.148;12.174;2023-02-28T08:43:59;103192.13;;;6.33;86.52
53514;BME280;39768;54.148;12.174;2023-02-28T08:48:01;103191.47;;;6.38;86.54
53514;BME280;39768;54.148;12.174;2023-02-28T08:52:03;103200.75;;;6.70;90.38
53514;BME280;39768;54.148;12.174;2023-02-28T08:56:13;103184.06;;;6.30;86.71
53514;BME280;39768;54.148;12.174;2023-02-28T09:00:14;103184.78;;;6.26;86.08
53514;BME280;39768;54.148;12.174;2023-02-28T09:04:16;103185.75;;;6.28;80.86
53514;BME280;39768;54.148;12.174;2023-02-28T09:08:21;103187.75;;;6.54;81.09
53514;BME280;39768;54.148;12.174;2023-02-28T09:12:26;103181.38;;;6.28;79.07
53514;BME280;39768;54.148;12.174;2023-02-28T09:16:29;103176.63;;;6.84;76.37
53514;BME280;39768;54.148;12.174;2023-02-28T09:20:32;103176.31;;;6.97;75.52
53514;BME280;39768;54.148;12.174;2023-02-28T09:24:33;103189.56;;;7.43;71.40
53514;BME280;39768;54.148;12.174;2023-02-28T09:28:34;103181.94;;;7.51;66.89
53514;BME280;39768;54.148;12.174;2023-02-28T09:32:36;103182.13;;;7.55;60.71
53514;BME280;39768;54.148;12.174;2023-02-28T09:36:37;103193.16;;;7.67;58.69
53514;BME280;39768;54.148;12.174;2023-02-28T09:40:51;103197.19;;;8.05;58.65
53514;BME280;39768;54.148;12.174;2023-02-28T09:44:55;103198.91;;;8.05;56.87
53514;BME280;39768;54.148;12.174;2023-02-28T09:49:00;103197.22;;;8.31;58.34
53514;BME280;39768;54.148;12.174;2023-02-28T09:53:10;103200.78;;;8.57;55.17
53514;BME280;39768;54.148;12.174;2023-02-28T09:57:37;103204.41;;;7.86;58.64
53514;BME280;39768;54.148;12.174;2023-02-28T10:02:15;103209.97;;;7.93;55.88
53514;BME280;39768;54.148;12.174;2023-02-28T10:06:20;103214.97;;;8.09;56.94
53514;BME280;39768;54.148;12.174;2023-02-28T10:10:30;103215.97;;;8.13;55.50
53514;BME280;39768;54.148;12.174;2023-02-28T10:14:35;103208.53;;;8.03;56.02
53514;BME280;39768;54.148;12.174;2023-02-28T10:18:46;103208.00;;;8.11;54.24
53514;BME280;39768;54.148;12.174;2023-02-28T10:23:13;103209.38;;;8.76;53.53
53514;BME280;39768;54.148;12.174;2023-02-28T10:27:19;103203.88;;;8.97;53.63
53514;BME280;39768;54.148;12.174;2023-02-28T10:31:21;103196.63;;;9.18;51.43
53514;BME280;39768;54.148;12.174;2023-02-28T10:35:26;103204.28;;;9.09;51.21
53514;BME280;39768;54.148;12.174;2023-02-28T10:39:45;103191.31;;;9.18;50.71
53514;BME280;39768;54.148;12.174;2023-02-28T10:43:49;103186.28;;;9.28;49.86
53514;BME280;39768;54.148;12.174;2023-02-28T10:47:59;103188.88;;;8.98;49.80
53514;BME280;39768;54.148;12.174;2023-02-28T10:52:02;103195.53;;;9.12;51.65
53514;BME280;39768;54.148;12.174;2023-02-28T11:00:23;103200.41;;;9.86;48.85
53514;BME280;39768;54.148;12.174;2023-02-28T11:08:31;103186.97;;;9.80;48.69
53514;BME280;39768;54.148;12.174;2023-02-28T11:12:37;103180.41;;;9.68;49.08
53514;BME280;39768;54.148;12.174;2023-02-28T11:16:53;103176.38;;;9.50;49.53
53514;BME280;39768;54.148;12.174;2023-02-28T11:20:57;103164.75;;;9.45;51.98
53514;BME280;39768;54.148;12.174;2023-02-28T11:25:06;103170.34;;;9.56;50.59
53514;BME280;39768;54.148;12.174;2023-02-28T11:33:37;103176.38;;;9.50;50.98
53514;BME280;39768;54.148;12.174;2023-02-28T11:37:41;103172.34;;;9.05;51.99
53514;BME280;39768;54.148;12.174;2023-02-28T11:42:11;103181.16;;;9.32;51.00
53514;BME280;39768;54.148;12.174;2023-02-28T11:59:30;103135.03;;;9.27;50.78
53514;BME280;39768;54.148;12.174;2023-02-28T12:07:59;103132.59;;;9.05;57.52
53514;BME280;39768;54.148;12.174;2023-02-28T12:12:34;103122.22;;;8.84;52.90
53514;BME280;39768;54.148;12.174;2023-02-28T12:29:43;103113.56;;;9.18;53.15
53514;BME280;39768;54.148;12.174;2023-02-28T12:33:51;103111.84;;;9.81;51.88
53514;BME280;39768;54.148;12.174;2023-02-28T12:38:10;103113.88;;;9.59;50.50
53514;BME280;39768;54.148;12.174;2023-02-28T12:42:24;103109.63;;;9.35;52.22
53514;BME280;39768;54.148;12.174;2023-02-28T12:46:40;103116.47;;;9.27;52.33
53514;BME280;39768;54.148;12.174;2023-02-28T12:50:42;103108.84;;;9.38;51.40
53514;BME280;39768;54.148;12.174;2023-02-28T12:54:51;103110.00;;;9.47;50.41
53514;BME280;39768;54.148;12.174;2023-02-28T12:59:00;103108.38;;;9.52;51.40
53514;BME280;39768;54.148;12.174;2023-02-28T13:03:19;103104.81;;;9.52;52.07
53514;BME280;39768;54.148;12.174;2023-02-28T13:11:56;103112.63;;;9.16;51.71
53514;BME280;39768;54.148;12.174;2023-02-28T13:16:02;103125.84;;;9.44;50.91
53514;BME280;39768;54.148;12.174;2023-02-28T13:20:15;103125.84;;;9.44;51.57
53514;BME280;39768;54.148;12.174;2023-02-28T13:24:37;103126.19;;;9.27;51.90
53514;BME280;39768;54.148;12.174;2023-02-28T13:29:04;103114.56;;;9.53;51.40
53514;BME280;39768;54.148;12.174;2023-02-28T13:33:23;103108.94;;;9.72;51.99
53514;BME280;39768;54.148;12.174;2023-02-28T13:45:37;103105.06;;;9.60;53.07
53514;BME280;39768;54.148;12.174;2023-02-28T13:49:40;103103.50;;;9.68;51.99
53514;BME280;39768;54.148;12.174;2023-02-28T13:53:57;103099.19;;;9.40;51.87
53514;BME280;39768;54.148;12.174;2023-02-28T14:03:05;103092.56;;;9.26;53.46
53514;BME280;39768;54.148;12.174;2023-02-28T14:07:09;103082.41;;;9.11;54.01
53514;BME280;39768;54.148;12.174;2023-02-28T14:11:32;103076.63;;;9.24;53.07
53514;BME280;39768;54.148;12.174;2023-02-28T14:15:44;103064.28;;;9.25;55.68
53514;BME280;39768;54.148;12.174;2023-02-28T14:19:47;103063.25;;;9.51;56.76
53514;BME280;39768;54.148;12.174;2023-02-28T14:37:02;103045.31;;;8.53;60.82
53514;BME280;39768;54.148;12.174;2023-02-28T14:41:11;103034.69;;;8.51;59.76
53514;BME280;39768;54.148;12.174;2023-02-28T14:45:19;103033.03;;;8.55;59.66
53514;BME280;39768;54.148;12.174;2023-02-28T14:49:42;103031.81;;;8.43;58.76
53514;BME280;39768;54.148;12.174;2023-02-28T14:53:48;103034.22;;;8.94;57.36
53514;BME280;39768;54.148;12.174;2023-02-28T14:57:57;103030.91;;;9.31;57.36
53514;BME280;39768;54.148;12.174;2023-02-28T15:06:19;103023.91;;;9.03;58.54
53514;BME280;39768;54.148;12.174;2023-02-28T15:10:25;103022.22;;;9.07;56.54
53514;BME280;39768;54.148;12.174;2023-02-28T15:14:27;103027.41;;;9.02;57.21
53514;BME280;39768;54.148;12.174;2023-02-28T15:18:41;103021.56;;;9.14;56.78
53514;BME280;39768;54.148;12.174;2023-02-28T15:22:46;103026.72;;;9.09;57.31
53514;BME280;39768;54.148;12.174;2023-02-28T15:26:54;103026.66;;;8.78;60.47
53514;BME280;39768;54.148;12.174;2023-02-28T15:31:03;103025.66;;;8.73;59.35
53514;BME280;39768;54.148;12.174;2023-02-28T15:35:29;103033.56;;;8.71;60.86
53514;BME280;39768;54.148;12.174;2023-02-28T15:39:41;103037.47;;;8.56;61.65
53514;BME280;39768;54.148;12.174;2023-02-28T15:43:43;103036.09;;;8.40;63.04
53514;BME280;39768;54.148;12.174;2023-02-28T15:47:45;103030.66;;;8.35;64.57
53514;BME280;39768;54.148;12.174;2023-02-28T15:51:49;103022.53;;;8.58;64.79
53514;BME280;39768;54.148;12.174;2023-02-28T15:56:00;103024.88;;;8.48;63.68
53514;BME280;39768;54.148;12.174;2023-02-28T16:00:03;103021.25;;;8.45;64.22
53514;BME280;39768;54.148;12.174;2023-02-28T16:04:18;103023.59;;;8.36;65.21
53514;BME280;39768;54.148;12.174;2023-02-28T16:08:20;103020.31;;;8.18;65.67
53514;BME280;39768;54.148;12.174;2023-02-28T16:12:28;103016.59;;;8.11;65.81
53514;BME280;39768;54.148;12.174;2023-02-28T16:16:30;103021.56;;;8.02;68.05
53514;BME280;39768;54.148;12.174;2023-02-28T16:20:32;103021.16;;;7.90;69.05
53514;BME280;39768;54.148;12.174;2023-02-28T16:24:34;103024.59;;;7.87;66.97
53514;BME280;39768;54.148;12.174;2023-02-28T16:28:37;103019.66;;;7.71;68.25
53514;BME280;39768;54.148;12.174;2023-02-28T16:32:39;103016.38;;;7.78;68.24
53514;BME280;39768;54.148;12.174;2023-02-28T16:36:41;103017.03;;;7.71;70.11
53514;BME280;39768;54.148;12.174;2023-02-28T16:40:43;103012.97;;;7.31;70.93
53514;BME280;39768;54.148;12.174;2023-02-28T16:44:46;103009.81;;;7.41;69.19
53514;BME280;39768;54.148;12.174;2023-02-28T16:48:47;103016.84;;;7.17;70.96
53514;BME280;39768;54.148;12.174;2023-02-28T16:52:52;103027.09;;;7.08;71.94
53514;BME280;39768;54.148;12.174;2023-02-28T16:56:55;103028.25;;;6.92;72.78
53514;BME280;39768;54.148;12.174;2023-02-28T17:00:57;103031.16;;;7.00;75.23
53514;BME280;39768;54.148;12.174;2023-02-28T17:04:58;103037.84;;;6.90;75.33
53514;BME280;39768;54.148;12.174;2023-02-28T17:09:00;103042.47;;;6.73;76.71
53514;BME280;39768;54.148;12.174;2023-02-28T17:13:01;103052.44;;;6.58;78.72
53514;BME280;39768;54.148;12.174;2023-02-28T17:17:20;103051.59;;;6.37;78.97
53514;BME280;39768;54.148;12.174;2023-02-28T17:21:22;103046.13;;;6.32;80.38
53514;BME280;39768;54.148;12.174;2023-02-28T17:25:24;103050.00;;;6.20;80.75
53514;BME280;39768;54.148;12.174;2023-02-28T17:29:25;103043.13;;;6.03;81.17
53514;BME280;39768;54.148;12.174;2023-02-28T17:33:27;103047.91;;;5.90;82.34
53514;BME280;39768;54.148;12.174;2023-02-28T17:37:28;103047.53;;;5.83;83.69
53514;BME280;39768;54.148;12.174;2023-02-28T17:41:30;103046.97;;;5.50;88.75
53514;BME280;39768;54.148;12.174;2023-02-28T17:45:32;103060.38;;;5.16;91.22
53514;BME280;39768;54.148;12.174;2023-02-28T17:49:35;103065.56;;;5.53;95.96
53514;BME280;39768;54.148;12.174;2023-02-28T17:53:37;103064.41;;;5.46;92.85
53514;BME280;39768;54.148;12.174;2023-02-28T17:57:39;103064.19;;;5.22;92.56
53514;BME280;39768;54.148;12.174;2023-02-28T18:01:43;103070.56;;;5.27;91.84
53514;BME280;39768;54.148;12.174;2023-02-28T18:05:44;103070.56;;;5.08;91.36
53514;BME280;39768;54.148;12.174;2023-02-28T18:09:46;103083.16;;;4.96;92.20
53514;BME280;39768;54.148;12.174;2023-02-28T18:13:52;103084.56;;;4.70;92.67
53514;BME280;39768;54.148;12.174;2023-02-28T18:17:54;103082.38;;;4.61;94.65
53514;BME280;39768;54.148;12.174;2023-02-28T18:21:56;103081.63;;;4.64;92.51
53514;BME280;39768;54.148;12.174;2023-02-28T18:25:57;103077.28;;;4.65;92.54
53514;BME280;39768;54.148;12.174;2023-02-28T18:29:59;103084.06;;;4.59;91.84
53514;BME280;39768;54.148;12.174;2023-02-28T18:34:00;103081.53;;;4.43;92.72
53514;BME280;39768;54.148;12.174;2023-02-28T18:38:09;103085.56;;;4.37;92.13
53514;BME280;39768;54.148;12.174;2023-02-28T18:42:12;103080.00;;;4.31;92.71
53514;BME280;39768;54.148;12.174;2023-02-28T18:46:15;103083.59;;;4.33;92.76
53514;BME280;39768;54.148;12.174;2023-02-28T18:50:17;103077.25;;;4.28;95.03
53514;BME280;39768;54.148;12.174;2023-02-28T18:54:19;103074.13;;;4.18;94.58
53514;BME280;39768;54.148;12.174;2023-02-28T18:58:20;103070.97;;;4.08;94.59
53514;BME280;39768;54.148;12.174;2023-02-28T19:02:21;103071.44;;;3.99;95.51
53514;BME280;39768;54.148;12.174;2023-02-28T19:06:23;103064.66;;;4.04;95.10
53514;BME280;39768;54.148;12.174;2023-02-28T19:10:24;103060.03;;;3.99;95.04
53514;BME280;39768;54.148;12.174;2023-02-28T19:14:26;103057.72;;;3.88;95.02
53514;BME280;39768;54.148;12.174;2023-02-28T19:18:28;103058.94;;;3.77;94.98
53514;BME280;39768;54.148;12.174;2023-02-28T19:22:29;103055.47;;;3.78;94.58
53514;BME280;39768;54.148;12.174;2023-02-28T19:26:31;103047.84;;;3.83;94.55
53514;BME280;39768;54.148;12.174;2023-02-28T19:30:32;103053.00;;;3.81;94.35
53514;BME280;39768;54.148;12.174;2023-02-28T19:34:34;103041.97;;;3.71;94.21
53514;BME280;39768;54.148;12.174;2023-02-28T19:38:35;103038.84;;;3.62;94.61
53514;BME280;39768;54.148;12.174;2023-02-28T19:42:36;103038.84;;;3.62;94.46
53514;BME280;39768;54.148;12.174;2023-02-28T19:46:38;103036.16;;;3.60;95.35
53514;BME280;39768;54.148;12.174;2023-02-28T19:50:40;103032.31;;;3.71;94.70
53514;BME280;39768;54.148;12.174;2023-02-28T19:54:42;103030.06;;;3.61;94.89
53514;BME280;39768;54.148;12.174;2023-02-28T19:58:43;103038.72;;;3.42;95.67
53514;BME280;39768;54.148;12.174;2023-02-28T20:02:45;103035.69;;;3.51;95.57
53514;BME280;39768;54.148;12.174;2023-02-28T20:06:46;103038.81;;;3.28;97.87
53514;BME280;39768;54.148;12.174;2023-02-28T20:10:48;103035.06;;;3.23;97.65
53514;BME280;39768;54.148;12.174;2023-02-28T20:14:49;103042.25;;;3.27;100.00
53514;BME280;39768;54.148;12.174;2023-02-28T20:18:51;103045.16;;;3.15;99.92
53514;BME280;39768;54.148;12.174;2023-02-28T20:22:52;103045.13;;;3.31;99.01
53514;BME280;39768;54.148;12.174;2023-02-28T20:26:54;103050.66;;;3.19;99.99
53514;BME280;39768;54.148;12.174;2023-02-28T20:30:57;103056.72;;;3.35;100.00
53514;BME280;39768;54.148;12.174;2023-02-28T20:35:00;103054.81;;;3.48;100.00
53514;BME280;39768;54.148;12.174;2023-02-28T20:39:03;103051.34;;;3.49;100.00
53514;BME280;39768;54.148;12.174;2023-02-28T20:43:05;103042.66;;;3.50;100.00
53514;BME280;39768;54.148;12.174;2023-02-28T20:47:07;103051.19;;;3.30;99.70
53514;BME280;39768;54.148;12.174;2023-02-28T20:51:09;103043.75;;;3.22;99.99
53514;BME280;39768;54.148;12.174;2023-02-28T20:55:11;103039.88;;;2.99;98.69
53514;BME280;39768;54.148;12.174;2023-02-28T20:59:13;103045.28;;;2.86;100.00
53514;BME280;39768;54.148;12.174;2023-02-28T21:03:14;103042.94;;;2.43;100.00
53514;BME280;39768;54.148;12.174;2023-02-28T21:07:16;103048.41;;;2.78;100.00
53514;BME280;39768;54.148;12.174;2023-02-28T21:11:20;103043.19;;;3.11;98.71
53514;BME280;39768;54.148;12.174;2023-02-28T21:15:23;103038.44;;;3.04;98.79
53514;BME280;39768;54.148;12.174;2023-02-28T21:19:25;103046.94;;;3.00;97.82
53514;BME280;39768;54.148;12.174;2023-02-28T21:23:26;103049.91;;;2.90;97.86
53514;BME280;39768;54.148;12.174;2023-02-28T21:27:28;103055.41;;;2.94;99.64
53514;BME280;39768;54.148;12.174;2023-02-28T21:31:31;103071.03;;;2.45;100.00
53514;BME280;39768;54.148;12.174;2023-02-28T21:35:33;103067.78;;;1.74;100.00
53514;BME280;39768;54.148;12.174;2023-02-28T21:39:34;103064.44;;;2.52;100.00
53514;BME280;39768;54.148;12.174;2023-02-28T21:43:36;103059.28;;;2.70;100.00
53514;BME280;39768;54.148;12.174;2023-02-28T21:47:37;103053.59;;;2.77;100.00
53514;BME280;39768;54.148;12.174;2023-02-28T21:51:39;103053.41;;;2.74;99.54
53514;BME280;39768;54.148;12.174;2023-02-28T21:55:40;103052.16;;;2.67;99.01
53514;BME280;39768;54.148;12.174;2023-02-28T21:59:42;103040.44;;;2.61;98.54
53514;BME280;39768;54.148;12.174;2023-02-28T22:03:45;103041.88;;;2.56;98.62
53514;BME280;39768;54.148;12.174;2023-02-28T22:07:47;103042.97;;;2.59;99.10
53514;BME280;39768;54.148;12.174;2023-02-28T22:11:49;103044.28;;;2.51;99.20
53514;BME280;39768;54.148;12.174;2023-02-28T22:15:50;103043.16;;;2.62;98.86
53514;BME280;39768;54.148;12.174;2023-02-28T22:19:52;103052.19;;;2.53;98.62
53514;BME280;39768;54.148;12.174;2023-02-28T22:23:53;103049.75;;;2.56;99.36
53514;BME280;39768;54.148;12.174;2023-02-28T22:27:55;103044.50;;;2.56;100.00
53514;BME280;39768;54.148;12.174;2023-02-28T22:31:56;103049.53;;;2.51;100.00
53514;BME280;39768;54.148;12.174;2023-02-28T22:36:04;103047.94;;;2.55;99.51
53514;BME280;39768;54.148;12.174;2023-02-28T22:40:07;103052.09;;;2.35;99.84
53514;BME280;39768;54.148;12.174;2023-02-28T22:44:09;103047.00;;;2.07;100.00
53514;BME280;39768;54.148;12.174;2023-02-28T22:48:11;103044.53;;;2.10;100.00